Time;durP1;ratioP1;P1;durP2;ratioP2;P2;SDS_P1;SDS_P2;PMS_P1;PMS_P2;Temp;Humidity;BMP_temperature;BMP_pressure;BME280_temperature;BME280_humidity;BME280_pressure;Samples;Min_cycle;Max_cycle;Signal;HPM_P1;HPM_P2
2023/04/07 00:02:12;;;;;;;37.80;23.50;;;7.40;1.00;;;;;;5026248;28;20129;-66
2023/04/07 00:04:37;;;;;;;29.17;19.75;;;7.90;1.00;;;;;;5022240;28;20665;-66
2023/04/07 00:07:03;;;;;;;31.88;20.90;;;7.90;1.00;;;;;;5025111;28;20116;-66
2023/04/07 00:09:28;;;;;;;34.58;22.48;;;7.70;1.00;;;;;;5023772;28;20091;-66
2023/04/07 00:11:55;;;;;;;33.28;21.35;;;7.20;1.00;;;;;;5024138;28;20105;-66
2023/04/07 00:14:20;;;;;;;37.40;23.05;;;7.70;1.00;;;;;;5023314;28;20059;-66
2023/04/07 00:16:46;;;;;;;32.35;21.10;;;7.90;1.00;;;;;;5022447;28;20041;-66
2023/04/07 00:19:12;;;;;;;31.45;21.45;;;7.40;1.00;;;;;;5025551;28;20165;-66
2023/04/07 00:21:37;;;;;;;32.53;22.33;;;7.70;1.00;;;;;;5018826;28;20141;-66
2023/04/07 00:24:03;;;;;;;32.50;21.50;;;7.60;1.00;;;;;;5024297;28;20033;-66
2023/04/07 00:26:31;;;;;;;36.35;23.23;;;7.70;1.00;;;;;;5021280;28;20038;-66
2023/04/07 00:28:58;;;;;;;33.17;20.65;;;7.80;1.00;;;;;;5019307;28;20061;-66
2023/04/07 00:31:23;;;;;;;30.15;20.65;;;8.20;1.00;;;;;;5024486;28;20030;-66
2023/04/07 00:33:49;;;;;;;32.83;20.85;;;7.50;1.00;;;;;;5020619;28;20048;-66
2023/04/07 00:36:15;;;;;;;32.13;21.35;;;7.60;1.00;;;;;;5014807;28;20034;-66
2023/04/07 00:38:40;;;;;;;33.67;23.02;;;8.20;1.00;;;;;;5022634;28;20033;-66
2023/04/07 00:41:06;;;;;;;34.92;23.08;;;;;;;;;;5022871;28;20424;-66
2023/04/07 00:43:33;;;;;;;38.53;23.58;;;;;;;;;;5022509;28;20403;-66
2023/04/07 00:45:59;;;;;;;37.40;23.95;;;8.10;1.00;;;;;;5000568;28;20080;-66
2023/04/07 00:48:24;;;;;;;33.95;22.55;;;8.10;1.00;;;;;;5023662;28;20503;-66
2023/04/07 00:50:50;;;;;;;33.30;22.63;;;7.30;1.00;;;;;;5024950;28;20037;-66
2023/04/07 00:53:16;;;;;;;41.17;24.63;;;7.40;1.00;;;;;;5024314;28;20035;-66
2023/04/07 00:55:42;;;;;;;41.35;25.92;;;7.90;1.00;;;;;;5023817;28;20045;-67
2023/04/07 00:58:08;;;;;;;37.65;22.77;;;7.30;1.00;;;;;;5023266;28;20117;-66
2023/04/07 01:00:45;;;;;;;35.22;22.42;;;7.50;1.00;;;;;;5011590;28;20565;-66
2023/04/07 01:03:24;;;;;;;42.38;26.05;;;7.60;1.00;;;;;;5023090;28;20037;-66
2023/04/07 01:05:54;;;;;;;39.72;25.00;;;;;;;;;;5019413;28;20465;-67
2023/04/07 01:08:26;;;;;;;36.42;23.63;;;7.30;1.00;;;;;;5023806;28;20080;-66
2023/04/07 01:10:59;;;;;;;45.22;26.13;;;7.30;1.00;;;;;;5036347;28;20049;-66
2023/04/07 01:13:35;;;;;;;37.38;23.73;;;7.60;1.00;;;;;;5024865;28;20037;-66
2023/04/07 01:16:08;;;;;;;38.40;24.85;;;7.70;1.00;;;;;;5017344;28;20124;-66
2023/04/07 01:18:35;;;;;;;38.90;24.40;;;7.60;1.00;;;;;;5022358;28;20052;-66
2023/04/07 01:21:13;;;;;;;36.60;23.48;;;7.30;1.00;;;;;;5021505;28;20037;-66
2023/04/07 01:23:38;;;;;;;37.28;25.27;;;7.90;1.00;;;;;;5020769;28;20033;-67
2023/04/07 01:26:18;;;;;;;39.60;25.15;;;7.70;1.00;;;;;;5021476;28;20510;-66
2023/04/07 01:29:13;;;;;;;38.92;25.95;;;8.10;1.00;;;;;;5022304;28;20037;-66
2023/04/07 01:31:40;;;;;;;35.53;24.07;;;8.10;1.00;;;;;;5019512;28;20403;-66
2023/04/07 01:34:09;;;;;;;40.08;25.48;;;7.60;1.00;;;;;;5020845;28;20061;-66
2023/04/07 01:36:35;;;;;;;36.20;23.05;;;7.50;1.00;;;;;;5024044;28;20057;-66
2023/04/07 01:39:01;;;;;;;50.55;28.48;;;7.50;1.00;;;;;;5024399;28;20040;-66
2023/04/07 01:41:29;;;;;;;43.20;24.85;;;8.10;1.00;;;;;;5023224;28;20402;-66
2023/04/07 01:43:56;;;;;;;42.22;26.33;;;7.40;1.00;;;;;;5017279;28;20038;-66
2023/04/07 01:46:22;;;;;;;40.70;24.20;;;7.40;1.00;;;;;;5019300;28;20384;-66
2023/04/07 01:48:49;;;;;;;41.95;25.92;;;8.30;6.10;;;;;;5022158;28;20048;-66
2023/04/07 01:51:17;;;;;;;35.45;22.85;;;7.80;11.50;;;;;;5023544;28;20037;-66
2023/04/07 01:53:45;;;;;;;36.38;22.95;;;8.20;16.40;;;;;;5020950;28;20041;-66
2023/04/07 01:56:11;;;;;;;53.75;27.58;;;7.40;26.30;;;;;;5021258;28;20464;-66
2023/04/07 01:58:36;;;;;;;42.65;26.15;;;8.20;24.90;;;;;;5016594;28;20034;-66
2023/04/07 02:01:02;;;;;;;46.63;28.00;;;7.80;29.50;;;;;;5023794;28;20033;-66
2023/04/07 02:03:47;;;;;;;41.75;25.88;;;8.10;38.10;;;;;;5020761;28;20602;-66
2023/04/07 02:06:17;;;;;;;38.80;24.52;;;8.30;54.30;;;;;;5022329;28;20132;-66
2023/04/07 02:08:46;;;;;;;39.90;25.63;;;;;;;;;;5022811;28;20384;-66
2023/04/07 02:11:14;;;;;;;35.95;23.17;;;8.20;73.00;;;;;;5023036;28;20049;-66
2023/04/07 02:13:42;;;;;;;35.72;22.65;;;8.30;66.90;;;;;;5023064;28;20091;-66
2023/04/07 02:16:09;;;;;;;39.58;24.95;;;8.10;77.00;;;;;;5018771;28;20052;-66
2023/04/07 02:18:36;;;;;;;42.80;26.05;;;8.00;82.70;;;;;;5018743;28;20038;-66
2023/04/07 02:21:04;;;;;;;54.13;28.38;;;7.40;81.50;;;;;;5024798;28;20033;-66
2023/04/07 02:23:30;;;;;;;42.15;25.70;;;7.20;87.90;;;;;;5023190;28;20441;-66
2023/04/07 02:25:57;;;;;;;37.50;24.58;;;7.60;86.90;;;;;;5018927;28;20053;-66
2023/04/07 02:28:22;;;;;;;37.80;23.63;;;8.30;86.00;;;;;;5019127;28;20067;-66
2023/04/07 02:30:48;;;;;;;37.58;22.73;;;8.10;91.00;;;;;;5019085;28;20457;-66
2023/04/07 02:33:14;;;;;;;35.97;22.02;;;7.50;92.70;;;;;;5021011;28;20076;-66
2023/04/07 02:35:40;;;;;;;42.28;24.77;;;7.70;95.40;;;;;;5023556;28;20041;-66
2023/04/07 02:38:05;;;;;;;32.90;21.23;;;8.20;95.90;;;;;;5022673;28;20087;-66
2023/04/07 02:40:31;;;;;;;42.00;24.55;;;7.90;96.50;;;;;;5021777;28;20087;-66
2023/04/07 02:42:57;;;;;;;34.40;21.48;;;8.50;97.00;;;;;;5018572;28;20451;-66
2023/04/07 02:45:23;;;;;;;37.45;22.88;;;8.20;97.20;;;;;;5021541;28;20029;-66
2023/04/07 02:47:49;;;;;;;31.85;20.63;;;7.60;96.60;;;;;;5016378;28;20095;-66
2023/04/07 02:50:15;;;;;;;34.33;21.85;;;7.50;99.10;;;;;;5019091;28;20052;-66
2023/04/07 02:52:40;;;;;;;32.00;20.80;;;7.20;98.10;;;;;;5020338;28;20038;-66
2023/04/07 02:55:06;;;;;;;34.80;21.75;;;7.50;99.90;;;;;;5019586;28;20685;-66
2023/04/07 02:57:32;;;;;;;36.63;22.38;;;8.00;99.90;;;;;;5022796;28;20030;-66
2023/04/07 02:59:57;;;;;;;35.78;21.75;;;7.70;99.90;;;;;;5021127;28;20414;-66
2023/04/07 03:02:23;;;;;;;38.97;23.17;;;8.10;99.90;;;;;;5018032;28;20491;-66
2023/04/07 03:04:51;;;;;;;34.13;21.35;;;7.80;99.90;;;;;;5016824;28;20079;-66
2023/04/07 03:07:17;;;;;;;40.70;24.13;;;;;;;;;;5017996;28;20045;-66
2023/04/07 03:09:43;;;;;;;39.22;22.63;;;7.60;99.90;;;;;;5021890;28;20060;-66
2023/04/07 03:12:10;;;;;;;35.38;22.98;;;8.30;99.90;;;;;;5020831;28;20049;-66
2023/04/07 03:14:36;;;;;;;36.28;22.73;;;8.20;99.90;;;;;;5022173;28;20041;-66
2023/04/07 03:17:02;;;;;;;41.40;24.25;;;;;;;;;;5022415;28;20045;-66
2023/04/07 03:19:28;;;;;;;34.75;21.75;;;7.40;99.90;;;;;;5020283;28;20045;-66
2023/04/07 03:21:54;;;;;;;74.70;30.85;;;;;;;;;;5015903;28;20793;-66
2023/04/07 03:24:20;;;;;;;48.95;24.85;;;7.90;99.90;;;;;;5020753;28;20065;-66
2023/04/07 03:26:46;;;;;;;33.60;20.25;;;8.00;99.90;;;;;;5021920;28;20030;-66
2023/04/07 03:29:11;;;;;;;41.38;21.65;;;7.60;99.90;;;;;;5022064;28;20041;-65
2023/04/07 03:31:37;;;;;;;30.45;19.90;;;8.20;99.90;;;;;;5027254;28;20132;-65
2023/04/07 03:34:03;;;;;;;35.35;21.30;;;;;;;;;;5025019;28;20044;-65
2023/04/07 03:36:30;;;;;;;39.15;23.42;;;7.90;99.90;;;;;;5026855;28;20037;-66
2023/04/07 03:38:56;;;;;;;39.00;22.92;;;7.90;99.90;;;;;;5005628;28;20048;-66
2023/04/07 03:41:22;;;;;;;35.08;22.80;;;7.80;99.90;;;;;;5008129;28;20037;-65
2023/04/07 03:43:47;;;;;;;70.30;30.63;;;7.40;99.90;;;;;;5021233;28;20506;-65
2023/04/07 03:46:13;;;;;;;40.58;23.90;;;7.80;99.90;;;;;;5020589;28;20033;-65
2023/04/07 03:48:39;;;;;;;36.60;22.45;;;8.10;99.90;;;;;;5021342;28;20049;-66
2023/04/07 03:51:05;;;;;;;57.63;27.90;;;7.60;99.90;;;;;;5024756;28;20049;-65
2023/04/07 03:53:31;;;;;;;41.10;24.15;;;7.60;99.90;;;;;;5024070;28;20037;-65
2023/04/07 03:55:57;;;;;;;36.85;23.08;;;8.40;99.90;;;;;;5022314;28;20045;-65
2023/04/07 03:58:22;;;;;;;37.22;22.65;;;7.40;99.90;;;;;;5024058;28;20056;-65
2023/04/07 04:00:48;;;;;;;45.25;24.35;;;7.70;99.90;;;;;;5025828;28;20052;-66
2023/04/07 04:03:13;;;;;;;44.05;24.95;;;8.00;99.90;;;;;;5026163;28;20033;-65
2023/04/07 04:05:39;;;;;;;48.72;27.00;;;8.30;99.90;;;;;;5024054;28;20061;-65
2023/04/07 04:08:05;;;;;;;38.35;23.70;;;7.90;99.90;;;;;;5024488;28;20033;-65
2023/04/07 04:10:31;;;;;;;38.05;24.25;;;8.40;99.90;;;;;;5020301;28;20865;-65
2023/04/07 04:12:59;;;;;;;40.30;23.45;;;8.00;99.90;;;;;;5024597;28;20052;-66
2023/04/07 04:15:25;;;;;;;38.95;22.25;;;8.30;99.90;;;;;;5021963;28;20048;-65
2023/04/07 04:17:51;;;;;;;42.92;24.48;;;7.80;99.90;;;;;;5024613;28;20495;-65
2023/04/07 04:20:17;;;;;;;38.35;24.63;;;7.90;99.90;;;;;;5026117;28;20041;-65
2023/04/07 04:22:42;;;;;;;35.90;21.88;;;8.00;99.90;;;;;;5021572;28;20514;-65
2023/04/07 04:25:08;;;;;;;35.15;21.83;;;8.30;99.90;;;;;;5026249;28;20701;-65
2023/04/07 04:27:34;;;;;;;38.55;21.98;;;7.80;99.90;;;;;;5022724;28;20187;-65
2023/04/07 04:30:00;;;;;;;38.53;23.77;;;7.60;99.90;;;;;;5025210;28;20053;-65
2023/04/07 04:32:25;;;;;;;44.90;25.77;;;8.10;99.90;;;;;;5021505;28;20042;-65
2023/04/07 04:34:51;;;;;;;40.42;25.00;;;8.20;99.90;;;;;;5021233;28;20519;-66
2023/04/07 04:37:16;;;;;;;47.55;26.30;;;8.40;99.90;;;;;;5020142;28;20314;-66
2023/04/07 04:39:42;;;;;;;41.92;24.40;;;7.80;99.90;;;;;;5019081;28;20650;-66
2023/04/07 04:42:08;;;;;;;46.15;25.13;;;;;;;;;;5023158;28;20056;-66
2023/04/07 04:44:34;;;;;;;42.33;25.50;;;7.70;99.90;;;;;;5022601;28;20087;-66
2023/04/07 04:47:00;;;;;;;58.10;29.95;;;;;;;;;;5024988;28;20038;-65
2023/04/07 04:49:25;;;;;;;40.05;23.45;;;7.90;99.90;;;;;;5023895;28;20594;-66
2023/04/07 04:51:51;;;;;;;39.15;23.48;;;8.40;99.90;;;;;;5018969;28;20064;-66
2023/04/07 04:54:18;;;;;;;40.72;24.73;;;8.00;99.90;;;;;;5020036;28;20051;-66
2023/04/07 04:56:44;;;;;;;41.78;24.75;;;8.00;99.90;;;;;;5023863;28;20033;-66
2023/04/07 04:59:10;;;;;;;39.75;23.08;;;;;;;;;;5025209;28;20044;-66
2023/04/07 05:01:35;;;;;;;43.55;25.40;;;8.40;99.90;;;;;;5024526;28;20515;-66
2023/04/07 05:04:01;;;;;;;45.65;25.50;;;7.70;99.90;;;;;;5018290;28;20033;-66
2023/04/07 05:06:27;;;;;;;40.38;23.92;;;7.50;99.90;;;;;;5023592;28;20506;-66
2023/04/07 05:08:53;;;;;;;40.95;23.23;;;7.80;99.90;;;;;;5024294;28;20038;-66
2023/04/07 05:11:18;;;;;;;56.92;27.15;;;7.60;99.90;;;;;;5023711;28;20044;-66
2023/04/07 05:13:44;;;;;;;43.08;24.02;;;;;;;;;;5021397;28;20108;-66
2023/04/07 05:16:10;;;;;;;48.97;26.33;;;8.40;99.90;;;;;;5023390;28;20049;-66
2023/04/07 05:18:36;;;;;;;48.28;25.98;;;7.80;99.90;;;;;;5019084;28;20037;-66
2023/04/07 05:21:01;;;;;;;45.10;25.88;;;8.00;99.90;;;;;;5021186;28;20036;-66
2023/04/07 05:23:27;;;;;;;51.67;26.35;;;8.20;99.90;;;;;;5026662;28;20034;-66
2023/04/07 05:25:53;;;;;;;49.58;27.55;;;7.80;99.90;;;;;;5017700;28;20546;-66
2023/04/07 05:28:18;;;;;;;50.45;28.70;;;8.40;99.90;;;;;;5022638;28;20502;-66
2023/04/07 05:30:44;;;;;;;40.35;23.55;;;7.90;99.90;;;;;;5023159;28;20037;-66
2023/04/07 05:33:10;;;;;;;35.85;23.27;;;8.00;99.90;;;;;;5028294;28;20073;-66
2023/04/07 05:35:35;;;;;;;39.05;23.67;;;8.40;99.90;;;;;;5029806;28;20045;-66
2023/04/07 05:38:01;;;;;;;42.55;24.63;;;8.00;99.90;;;;;;5024451;28;20033;-66
2023/04/07 05:40:29;;;;;;;38.28;23.35;;;7.80;99.90;;;;;;5025773;28;20026;-66
2023/04/07 05:42:54;;;;;;;44.88;27.08;;;8.20;99.90;;;;;;5028199;28;20038;-65
2023/04/07 05:45:20;;;;;;;46.05;25.38;;;7.90;99.90;;;;;;5024687;28;20109;-65
2023/04/07 05:47:48;;;;;;;39.78;23.98;;;8.80;99.90;;;;;;5028237;28;20069;-65
2023/04/07 05:50:14;;;;;;;42.95;25.20;;;8.40;99.90;;;;;;5027605;28;20053;-65
2023/04/07 05:52:40;;;;;;;40.60;22.48;;;8.10;99.90;;;;;;5028373;28;20033;-65
2023/04/07 05:55:06;;;;;;;35.50;22.48;;;8.60;99.90;;;;;;5038085;28;20519;-65
2023/04/07 05:57:33;;;;;;;28.85;18.85;;;8.10;99.90;;;;;;5017650;28;20042;-65
2023/04/07 05:59:58;;;;;;;34.78;21.17;;;7.80;99.90;;;;;;5028227;28;20376;-65
2023/04/07 06:02:24;;;;;;;30.48;18.98;;;8.20;99.90;;;;;;5020606;28;20136;-65
2023/04/07 06:04:49;;;;;;;26.80;17.42;;;7.80;99.90;;;;;;5028473;28;20120;-65
2023/04/07 06:07:15;;;;;;;24.77;17.45;;;8.10;99.90;;;;;;5023398;28;20510;-65
2023/04/07 06:09:41;;;;;;;26.83;18.20;;;8.40;99.90;;;;;;5028456;28;20533;-65
2023/04/07 06:12:08;;;;;;;26.90;17.10;;;8.70;99.90;;;;;;5026736;28;20037;-65
2023/04/07 06:14:34;;;;;;;28.30;18.40;;;7.90;99.90;;;;;;5010838;28;20500;-65
2023/04/07 06:17:00;;;;;;;26.40;16.70;;;8.30;99.90;;;;;;5026344;28;20091;-65
2023/04/07 06:19:26;;;;;;;27.85;17.27;;;8.10;99.90;;;;;;5023991;28;20068;-65
2023/04/07 06:21:52;;;;;;;25.13;15.88;;;8.60;99.90;;;;;;5023883;28;20037;-65
2023/04/07 06:24:21;;;;;;;28.77;17.38;;;8.40;99.90;;;;;;5022967;28;20044;-65
2023/04/07 06:26:47;;;;;;;25.98;15.80;;;8.50;99.90;;;;;;5022116;28;20037;-65
2023/04/07 06:29:13;;;;;;;27.20;17.55;;;8.20;99.90;;;;;;5026846;28;20033;-65
2023/04/07 06:31:39;;;;;;;24.15;15.75;;;8.20;99.90;;;;;;5027461;28;20042;-65
2023/04/07 06:34:05;;;;;;;23.65;16.73;;;8.30;99.90;;;;;;5028932;28;20034;-65
2023/04/07 06:36:32;;;;;;;26.15;18.05;;;8.50;99.90;;;;;;5022402;28;20525;-65
2023/04/07 06:38:58;;;;;;;25.17;17.13;;;7.70;99.90;;;;;;5030072;28;20038;-67
2023/04/07 06:41:24;;;;;;;25.25;17.75;;;8.50;99.90;;;;;;5029172;28;20112;-65
2023/04/07 06:43:52;;;;;;;24.77;17.60;;;8.60;99.90;;;;;;5024055;28;20563;-64
2023/04/07 06:46:18;;;;;;;24.38;15.73;;;8.50;99.90;;;;;;5021551;28;20044;-65
2023/04/07 06:48:45;;;;;;;25.02;21.55;;;8.30;99.90;;;;;;5027593;28;20029;-66
2023/04/07 06:51:11;;;;;;;22.88;16.08;;;8.50;99.90;;;;;;5022059;28;20053;-65
2023/04/07 06:53:37;;;;;;;22.00;14.95;;;8.50;99.90;;;;;;5024768;28;20034;-66
2023/04/07 06:56:11;;;;;;;21.42;14.85;;;8.50;99.90;;;;;;5024137;28;20269;-65
2023/04/07 06:58:37;;;;;;;;;;;8.30;99.90;;;;;;5024306;28;20061;-66
2023/04/07 07:01:04;;;;;;;24.35;18.85;;;8.50;99.90;;;;;;5025328;28;19972;-65
2023/04/07 07:03:30;;;;;;;18.17;13.27;;;8.30;99.90;;;;;;5023235;28;20084;-65
2023/04/07 07:05:57;;;;;;;21.40;14.93;;;8.70;99.90;;;;;;5036430;28;20414;-65
2023/04/07 07:08:23;;;;;;;17.67;13.07;;;8.60;99.90;;;;;;5032775;28;20115;-66
2023/04/07 07:10:48;;;;;;;19.52;14.98;;;8.60;99.90;;;;;;5029182;28;20096;-66
2023/04/07 07:13:14;;;;;;;17.73;13.43;;;8.80;99.40;;;;;;5032846;28;20502;-67
2023/04/07 07:15:40;;;;;;;19.05;13.18;;;8.60;93.40;;;;;;5024610;28;20037;-67
2023/04/07 07:18:05;;;;;;;15.13;11.55;;;8.70;98.60;;;;;;5015039;28;20040;-67
2023/04/07 07:20:31;;;;;;;16.88;12.10;;;8.80;99.90;;;;;;5032893;28;20030;-67
2023/04/07 07:22:57;;;;;;;18.15;12.40;;;9.20;68.10;;;;;;5031996;28;20095;-67
2023/04/07 07:25:25;;;;;;;16.85;12.88;;;8.80;57.20;;;;;;5032114;28;20057;-67
2023/04/07 07:27:52;;;;;;;17.10;12.23;;;9.10;77.70;;;;;;5031085;28;20041;-67
2023/04/07 07:30:20;;;;;;;18.10;12.95;;;9.10;60.90;;;;;;5027188;28;20498;-68
2023/04/07 07:32:46;;;;;;;16.40;12.10;;;8.90;57.80;;;;;;5022249;28;20056;-66
2023/04/07 07:35:11;;;;;;;16.08;12.68;;;8.80;36.50;;;;;;5026217;28;20494;-67
2023/04/07 07:37:37;;;;;;;15.55;11.23;;;9.80;64.80;;;;;;5024565;28;20056;-66
2023/04/07 07:40:03;;;;;;;18.85;12.50;;;8.60;65.90;;;;;;5023011;28;20040;-67
2023/04/07 07:42:30;;;;;;;17.45;11.18;;;8.80;14.10;;;;;;5021714;28;20040;-66
2023/04/07 07:44:56;;;;;;;16.52;11.65;;;9.00;10.00;;;;;;5028206;28;20045;-67
2023/04/07 07:47:22;;;;;;;15.32;10.88;;;9.30;16.40;;;;;;5026993;28;20594;-66
2023/04/07 07:49:47;;;;;;;16.95;13.45;;;8.60;36.40;;;;;;5031955;28;20120;-67
2023/04/07 07:52:13;;;;;;;18.02;14.52;;;8.60;33.80;;;;;;5024871;28;20041;-67
2023/04/07 07:54:39;;;;;;;15.73;11.02;;;8.70;1.00;;;;;;5018145;28;20034;-65
2023/04/07 07:57:05;;;;;;;15.88;11.95;;;9.00;1.00;;;;;;5019100;28;20468;-64
2023/04/07 07:59:31;;;;;;;15.90;12.27;;;8.90;1.00;;;;;;5025293;28;20030;-65
2023/04/07 08:01:57;;;;;;;15.32;11.18;;;9.20;1.00;;;;;;5020138;28;20069;-66
2023/04/07 08:04:22;;;;;;;15.00;11.25;;;9.00;1.00;;;;;;5022140;28;20491;-67
2023/04/07 08:06:49;;;;;;;14.75;11.52;;;8.60;1.00;;;;;;5025373;28;20045;-66
2023/04/07 08:09:15;;;;;;;15.45;11.25;;;8.70;1.00;;;;;;5019921;28;20428;-68
2023/04/07 08:11:41;;;;;;;15.65;11.93;;;8.60;1.00;;;;;;5025228;28;20092;-66
2023/04/07 08:14:07;;;;;;;15.05;10.65;;;9.00;1.00;;;;;;5029149;28;20577;-66
2023/04/07 08:16:32;;;;;;;17.80;12.10;;;8.90;1.00;;;;;;5033727;28;20045;-66
2023/04/07 08:18:58;;;;;;;14.98;11.25;;;8.60;1.00;;;;;;5016869;28;20038;-65
2023/04/07 08:21:25;;;;;;;16.42;11.57;;;9.20;99.90;;;;;;5023102;28;20064;-67
2023/04/07 08:23:52;;;;;;;17.10;11.60;;;8.90;99.90;;;;;;5026792;28;20095;-66
2023/04/07 08:26:18;;;;;;;16.92;12.55;;;8.90;99.90;;;;;;5030935;28;20111;-66
2023/04/07 08:28:44;;;;;;;16.65;12.00;;;9.60;99.90;;;;;;5019838;28;20085;-67
2023/04/07 08:31:10;;;;;;;18.02;13.00;;;9.40;99.90;;;;;;5025460;28;20034;-65
2023/04/07 08:33:35;;;;;;;17.88;13.15;;;9.00;99.90;;;;;;5028486;28;20040;-64
2023/04/07 08:36:01;;;;;;;17.63;12.32;;;9.30;99.90;;;;;;5022958;28;20045;-65
2023/04/07 08:38:26;;;;;;;17.73;12.63;;;9.30;99.90;;;;;;5024543;28;20391;-66
2023/04/07 08:41:00;;;;;;;18.85;12.48;;;9.80;99.90;;;;;;5026134;28;20041;-65
2023/04/07 08:43:27;;;;;;;17.83;12.48;;;9.70;99.90;;;;;;5024369;28;20045;-65
2023/04/07 08:45:56;;;;;;;17.83;12.48;;;10.00;99.90;;;;;;5023065;28;20050;-64
2023/04/07 08:48:25;;;;;;;17.05;12.23;;;9.70;99.90;;;;;;5029149;28;20041;-66
2023/04/07 08:50:52;;;;;;;17.92;13.40;;;9.50;99.90;;;;;;5020498;28;20048;-66
2023/04/07 08:53:26;;;;;;;18.58;13.07;;;10.00;99.90;;;;;;5030914;28;20034;-66
2023/04/07 08:55:54;;;;;;;21.70;15.98;;;10.40;99.90;;;;;;5030712;28;20038;-66
2023/04/07 08:58:20;;;;;;;23.33;18.83;;;10.20;99.90;;;;;;5030036;28;20044;-66
2023/04/07 09:00:48;;;;;;;18.92;13.82;;;9.60;61.90;;;;;;5015963;28;20034;-66
2023/04/07 09:03:15;;;;;;;19.30;13.57;;;9.50;58.80;;;;;;5024434;28;20037;-66
2023/04/07 09:05:45;;;;;;;22.35;16.40;;;10.30;43.50;;;;;;5023567;28;20029;-66
2023/04/07 09:08:11;;;;;;;20.08;13.80;;;10.40;65.50;;;;;;5013621;28;20040;-66
2023/04/07 09:10:36;;;;;;;17.95;13.25;;;10.00;34.40;;;;;;5026816;28;20038;-66
2023/04/07 09:13:02;;;;;;;18.13;13.80;;;10.10;19.30;;;;;;5019193;28;20049;-66
2023/04/07 09:15:31;;;;;;;18.20;12.82;;;9.90;1.00;;;;;;5023615;28;20390;-66
2023/04/07 09:17:58;;;;;;;18.88;13.80;;;9.90;1.00;;;;;;5014068;28;20041;-66
2023/04/07 09:20:24;;;;;;;17.90;12.60;;;10.20;1.00;;;;;;5016226;28;20083;-66
2023/04/07 09:22:50;;;;;;;19.27;12.75;;;10.50;1.00;;;;;;5022796;28;20086;-66
2023/04/07 09:25:25;;;;;;;15.70;11.10;;;10.60;1.00;;;;;;5024838;28;20108;-66
2023/04/07 09:28:02;;;;;;;16.40;12.25;;;10.50;99.90;;;;;;5027930;28;20606;-66
2023/04/07 09:30:29;;;;;;;16.23;12.07;;;10.40;99.90;;;;;;5029730;28;20116;-66
2023/04/07 09:32:55;;;;;;;15.50;11.43;;;10.20;1.00;;;;;;5024388;28;20574;-66
2023/04/07 09:35:22;;;;;;;16.45;11.85;;;10.80;99.90;;;;;;5006837;28;20052;-66
2023/04/07 09:38:08;;;;;;;15.63;10.82;;;10.60;99.90;;;;;;5016629;28;20407;-66
2023/04/07 09:40:36;;;;;;;12.27;8.80;;;11.00;99.90;;;;;;5025974;28;20409;-66
2023/04/07 09:43:02;;;;;;;13.93;9.63;;;11.60;99.90;;;;;;5014553;28;20048;-66
2023/04/07 09:45:31;;;;;;;14.35;10.25;;;11.40;72.60;;;;;;5028411;28;20034;-66
2023/04/07 09:47:56;;;;;;;14.68;10.95;;;11.60;5.50;;;;;;5032573;28;20417;-66
2023/04/07 09:50:37;;;;;;;16.13;11.95;;;11.90;1.00;;;;;;5021886;28;20033;-66
2023/04/07 09:53:03;;;;;;;16.35;12.77;;;11.50;1.00;;;;;;5021512;28;20030;-66
2023/04/07 09:55:30;;;;;;;15.00;11.60;;;11.10;1.00;;;;;;5017405;28;20036;-66
2023/04/07 09:57:56;;;;;;;14.45;10.30;;;11.00;1.00;;;;;;5025490;28;20543;-66
2023/04/07 10:00:22;;;;;;;12.32;9.40;;;11.60;1.00;;;;;;5019217;28;20037;-66
2023/04/07 10:02:49;;;;;;;12.05;8.65;;;10.80;99.90;;;;;;5007392;28;20053;-66
2023/04/07 10:05:15;;;;;;;13.18;8.98;;;11.20;99.90;;;;;;5019552;28;20072;-66
2023/04/07 10:07:42;;;;;;;43.35;32.28;;;11.20;99.90;;;;;;5031921;28;20045;-66
2023/04/07 10:10:08;;;;;;;13.15;10.18;;;11.80;99.90;;;;;;5029353;28;20044;-66
2023/04/07 10:12:36;;;;;;;12.20;9.23;;;11.00;99.90;;;;;;5027316;28;20081;-66
2023/04/07 10:15:03;;;;;;;13.15;9.52;;;11.30;99.90;;;;;;5034376;28;20451;-66
2023/04/07 10:17:31;;;;;;;14.95;10.18;;;11.40;99.90;;;;;;5018687;28;20491;-66
2023/04/07 10:20:01;;;;;;;12.93;8.77;;;11.50;99.90;;;;;;5026702;28;20099;-66
2023/04/07 10:22:28;;;;;;;11.40;8.35;;;11.20;99.90;;;;;;5032462;28;20049;-66
2023/04/07 10:24:57;;;;;;;11.57;8.52;;;11.80;99.90;;;;;;5019629;28;20038;-66
2023/04/07 10:27:32;;;;;;;13.63;10.32;;;11.60;99.90;;;;;;5016291;28;20090;-66
2023/04/07 10:30:00;;;;;;;13.23;9.90;;;11.40;99.90;;;;;;5028637;28;20049;-66
2023/04/07 10:32:26;;;;;;;11.82;8.40;;;11.00;95.70;;;;;;5038160;28;20395;-67
2023/04/07 10:34:54;;;;;;;12.57;9.02;;;11.00;91.80;;;;;;5025061;28;20042;-67
2023/04/07 10:37:21;;;;;;;12.57;8.50;;;11.50;66.80;;;;;;5031025;28;20391;-66
2023/04/07 10:39:48;;;;;;;12.30;8.40;;;12.00;99.90;;;;;;5024531;28;20108;-66
2023/04/07 10:42:38;;;;;;;11.10;7.85;;;10.60;52.40;;;;;;5015654;28;20038;-66
2023/04/07 10:45:05;;;;;;;12.40;8.60;;;10.90;37.70;;;;;;5027205;28;20041;-65
2023/04/07 10:47:31;;;;;;;11.23;8.15;;;10.80;9.00;;;;;;5029278;28;20465;-66
2023/04/07 10:50:20;;;;;;;11.95;8.60;;;11.50;41.70;;;;;;5028424;28;20045;-65
2023/04/07 10:52:48;;;;;;;10.90;7.70;;;11.60;76.30;;;;;;5024624;28;20049;-66
2023/04/07 10:55:39;;;;;;;13.73;9.15;;;11.60;1.00;;;;;;5017223;28;20093;-65
2023/04/07 10:58:21;;;;;;;10.52;7.50;;;11.60;1.00;;;;;;5019948;28;20048;-66
2023/04/07 11:01:02;;;;;;;10.95;7.40;;;11.00;1.00;;;;;;5020140;28;20030;-66
2023/04/07 11:03:33;;;;;;;10.73;6.80;;;11.30;1.00;;;;;;5022122;28;20038;-66
2023/04/07 11:06:07;;;;;;;9.77;7.05;;;;;;;;;;5019197;28;20049;-66
2023/04/07 11:08:36;;;;;;;10.95;7.60;;;;;;;;;;5015632;28;20096;-66
2023/04/07 11:11:09;;;;;;;11.90;9.35;;;11.50;1.00;;;;;;5022175;28;20103;-66
2023/04/07 11:13:45;;;;;;;10.05;7.03;;;11.70;99.90;;;;;;5021425;28;20041;-66
2023/04/07 11:16:12;;;;;;;12.00;7.85;;;12.20;99.90;;;;;;5024345;28;20084;-66
2023/04/07 11:18:39;;;;;;;10.32;6.90;;;12.20;99.90;;;;;;5020704;28;20041;-66
2023/04/07 11:21:06;;;;;;;10.98;7.72;;;11.70;99.90;;;;;;5023548;28;20045;-66
2023/04/07 11:23:44;;;;;;;10.38;7.10;;;12.50;99.90;;;;;;5030492;28;20049;-66
2023/04/07 11:26:11;;;;;;;9.30;6.47;;;;;;;;;;5018182;28;20050;-67
2023/04/07 11:28:47;;;;;;;8.60;5.80;;;12.40;99.90;;;;;;5023869;28;20038;-66
2023/04/07 11:31:22;;;;;;;8.85;5.95;;;12.70;99.90;;;;;;5022202;28;20065;-66
2023/04/07 11:33:55;;;;;;;9.20;6.40;;;12.60;99.90;;;;;;5024333;28;20420;-66
2023/04/07 11:36:28;;;;;;;9.20;6.15;;;12.60;99.90;;;;;;5020585;28;20429;-66
2023/04/07 11:38:56;;;;;;;9.20;6.10;;;13.20;99.90;;;;;;5022020;28;20069;-66
2023/04/07 11:41:22;;;;;;;9.20;6.43;;;13.00;99.90;;;;;;5017988;28;20076;-66
2023/04/07 11:43:49;;;;;;;9.10;5.88;;;12.70;85.00;;;;;;5031214;28;20033;-67
2023/04/07 11:46:17;;;;;;;8.45;5.40;;;13.70;71.30;;;;;;5027719;28;20037;-66
2023/04/07 11:48:44;;;;;;;9.43;5.90;;;13.40;31.60;;;;;;5039368;28;20042;-66
2023/04/07 11:51:22;;;;;;;8.90;5.68;;;13.00;12.60;;;;;;5032978;28;20522;-67
2023/04/07 11:53:54;;;;;;;8.25;5.32;;;12.90;2.70;;;;;;5033938;28;20049;-67
2023/04/07 11:56:21;;;;;;;9.00;5.88;;;13.60;1.00;;;;;;5032811;28;20044;-67
2023/04/07 11:58:51;;;;;;;9.55;6.03;;;13.40;1.00;;;;;;5039925;28;20029;-67
2023/04/07 12:01:18;;;;;;;9.05;5.88;;;13.50;1.00;;;;;;5032075;28;20113;-67
2023/04/07 12:04:01;;;;;;;7.93;5.07;;;13.50;1.00;;;;;;5019561;28;20414;-67
2023/04/07 12:06:40;;;;;;;8.18;5.15;;;13.50;99.90;;;;;;5021560;28;20073;-67
2023/04/07 12:09:07;;;;;;;7.63;4.82;;;14.20;99.90;;;;;;5027993;28;20445;-67
2023/04/07 12:11:33;;;;;;;8.32;4.93;;;14.50;99.90;;;;;;5034231;28;20517;-67
2023/04/07 12:13:59;;;;;;;7.75;5.00;;;14.40;99.90;;;;;;5029039;28;20046;-66
2023/04/07 12:16:25;;;;;;;11.32;6.25;;;14.50;99.90;;;;;;5028357;28;20034;-66
2023/04/07 12:18:51;;;;;;;12.32;5.72;;;14.30;99.90;;;;;;5030546;28;20045;-66
2023/04/07 12:21:17;;;;;;;14.90;5.78;;;14.60;99.90;;;;;;5025923;28;20033;-67
2023/04/07 12:23:43;;;;;;;8.52;5.50;;;14.50;99.90;;;;;;5023619;28;20042;-66
2023/04/07 12:26:10;;;;;;;9.00;5.80;;;14.00;99.90;;;;;;5028941;28;20538;-66
2023/04/07 12:28:36;;;;;;;8.52;5.45;;;14.30;99.90;;;;;;5026592;28;20076;-67
2023/04/07 12:31:03;;;;;;;8.70;5.22;;;;;;;;;;5025786;28;20065;-66
2023/04/07 12:33:29;;;;;;;22.63;7.85;;;13.80;99.90;;;;;;5032432;28;20487;-67
2023/04/07 12:35:55;;;;;;;9.68;6.55;;;13.40;99.90;;;;;;5028816;28;20407;-67
2023/04/07 12:38:21;;;;;;;14.95;7.15;;;13.20;99.90;;;;;;5027668;28;20638;-67
2023/04/07 12:40:47;;;;;;;10.15;6.72;;;12.90;99.90;;;;;;5024818;28;20108;-67
2023/04/07 12:43:12;;;;;;;8.25;6.07;;;13.00;99.90;;;;;;5029673;28;20110;-67
2023/04/07 12:45:38;;;;;;;9.38;5.75;;;12.80;99.90;;;;;;5030841;28;20403;-67
2023/04/07 12:48:04;;;;;;;11.10;8.25;;;12.80;99.90;;;;;;5030733;28;20080;-67